sensor_id;sensor_type;location;lat;lon;timestamp;pressure;altitude;pressure_sealevel;temperature;humidity
64115;BME280;62188;35.640;139.748;2024-02-21T00:01:56;102222.23;;;11.53;48.37
64115;BME280;62188;35.640;139.748;2024-02-21T00:04:25;102205.22;;;11.30;48.54
64115;BME280;62188;35.640;139.748;2024-02-21T00:06:48;102209.83;;;10.93;48.03
64115;BME280;62188;35.640;139.748;2024-02-21T00:09:22;102206.47;;;11.07;48.29
64115;BME280;62188;35.640;139.748;2024-02-21T00:11:39;102198.75;;;11.12;48.33
64115;BME280;62188;35.640;139.748;2024-02-21T00:14:04;102196.30;;;11.28;48.39
64115;BME280;62188;35.640;139.748;2024-02-21T00:16:31;102201.49;;;10.76;48.47
64115;BME280;62188;35.640;139.748;2024-02-21T00:18:55;102207.71;;;11.28;48.42
64115;BME280;62188;35.640;139.748;2024-02-21T00:21:22;102204.88;;;11.06;48.10
64115;BME280;62188;35.640;139.748;2024-02-21T00:23:48;102195.68;;;9.97;48.76
64115;BME280;62188;35.640;139.748;2024-02-21T00:26:12;102190.21;;;10.18;49.28
64115;BME280;62188;35.640;139.748;2024-02-21T00:28:39;102197.72;;;10.64;49.45
64115;BME280;62188;35.640;139.748;2024-02-21T00:31:06;102205.33;;;11.08;49.45
64115;BME280;62188;35.640;139.748;2024-02-21T00:33:29;102215.33;;;10.10;49.70
64115;BME280;62188;35.640;139.748;2024-02-21T00:35:56;102222.09;;;10.68;49.39
64115;BME280;62188;35.640;139.748;2024-02-21T00:38:20;102218.99;;;10.63;49.74
64115;BME280;62188;35.640;139.748;2024-02-21T00:40:49;102211.25;;;10.73;49.93
64115;BME280;62188;35.640;139.748;2024-02-21T00:43:12;102210.70;;;10.85;49.69
64115;BME280;62188;35.640;139.748;2024-02-21T00:45:38;102214.74;;;10.74;49.47
64115;BME280;62188;35.640;139.748;2024-02-21T00:48:04;102211.64;;;11.00;49.13
64115;BME280;62188;35.640;139.748;2024-02-21T00:50:29;102217.79;;;11.23;49.49
64115;BME280;62188;35.640;139.748;2024-02-21T00:52:54;102216.99;;;11.17;49.27
64115;BME280;62188;35.640;139.748;2024-02-21T00:55:21;102217.18;;;11.08;48.44
64115;BME280;62188;35.640;139.748;2024-02-21T00:57:49;102203.01;;;10.29;49.99
64115;BME280;62188;35.640;139.748;2024-02-21T01:00:13;102199.14;;;10.50;50.02
64115;BME280;62188;35.640;139.748;2024-02-21T01:02:38;102191.33;;;10.81;50.27
64115;BME280;62188;35.640;139.748;2024-02-21T01:05:03;102198.55;;;11.04;49.95
64115;BME280;62188;35.640;139.748;2024-02-21T01:07:28;102207.24;;;11.37;49.84
64115;BME280;62188;35.640;139.748;2024-02-21T01:09:55;102208.81;;;11.01;49.81
64115;BME280;62188;35.640;139.748;2024-02-21T01:12:19;102208.42;;;11.00;50.35
64115;BME280;62188;35.640;139.748;2024-02-21T01:14:45;102203.57;;;11.13;49.71
64115;BME280;62188;35.640;139.748;2024-02-21T01:17:10;102201.39;;;11.09;49.93
64115;BME280;62188;35.640;139.748;2024-02-21T01:19:36;102205.58;;;10.58;50.15
64115;BME280;62188;35.640;139.748;2024-02-21T01:22:04;102205.13;;;11.11;50.08
64115;BME280;62188;35.640;139.748;2024-02-21T01:24:28;102194.40;;;11.08;49.99
64115;BME280;62188;35.640;139.748;2024-02-21T01:26:54;102195.92;;;11.28;49.98
64115;BME280;62188;35.640;139.748;2024-02-21T01:29:18;102196.42;;;11.47;49.14
64115;BME280;62188;35.640;139.748;2024-02-21T01:31:44;102194.67;;;11.22;48.61
64115;BME280;62188;35.640;139.748;2024-02-21T01:34:10;102179.89;;;11.58;48.92
64115;BME280;62188;35.640;139.748;2024-02-21T01:36:36;102167.17;;;11.34;48.68
64115;BME280;62188;35.640;139.748;2024-02-21T01:39:02;102158.37;;;11.42;48.80
64115;BME280;62188;35.640;139.748;2024-02-21T01:41:26;102143.74;;;11.44;48.79
64115;BME280;62188;35.640;139.748;2024-02-21T01:43:52;102133.29;;;11.54;49.01
64115;BME280;62188;35.640;139.748;2024-02-21T01:46:19;102125.06;;;11.44;48.70
64115;BME280;62188;35.640;139.748;2024-02-21T01:48:44;102127.35;;;11.20;48.36
64115;BME280;62188;35.640;139.748;2024-02-21T01:51:10;102128.68;;;11.36;48.76
64115;BME280;62188;35.640;139.748;2024-02-21T01:53:38;102125.88;;;11.49;48.76
64115;BME280;62188;35.640;139.748;2024-02-21T01:56:03;102125.32;;;11.22;48.79
64115;BME280;62188;35.640;139.748;2024-02-21T01:58:30;102131.16;;;11.33;48.56
64115;BME280;62188;35.640;139.748;2024-02-21T02:00:55;102126.97;;;11.55;48.74
64115;BME280;62188;35.640;139.748;2024-02-21T02:03:17;102124.42;;;11.28;49.05
64115;BME280;62188;35.640;139.748;2024-02-21T02:05:44;102127.16;;;11.43;49.05
64115;BME280;62188;35.640;139.748;2024-02-21T02:08:09;102113.55;;;11.46;48.97
64115;BME280;62188;35.640;139.748;2024-02-21T02:10:33;102106.55;;;11.62;48.78
64115;BME280;62188;35.640;139.748;2024-02-21T02:13:00;102099.76;;;11.61;48.64
64115;BME280;62188;35.640;139.748;2024-02-21T02:15:26;102092.84;;;10.92;49.06
64115;BME280;62188;35.640;139.748;2024-02-21T02:17:51;102089.79;;;10.73;48.93
64115;BME280;62188;35.640;139.748;2024-02-21T02:20:17;102085.59;;;10.68;49.11
64115;BME280;62188;35.640;139.748;2024-02-21T02:22:44;102084.77;;;11.08;49.03
64115;BME280;62188;35.640;139.748;2024-02-21T02:25:08;102085.39;;;11.30;49.55
64115;BME280;62188;35.640;139.748;2024-02-21T02:27:32;102090.57;;;10.99;49.14
64115;BME280;62188;35.640;139.748;2024-02-21T02:30:01;102090.06;;;11.38;48.75
64115;BME280;62188;35.640;139.748;2024-02-21T02:32:24;102082.74;;;11.50;48.62
64115;BME280;62188;35.640;139.748;2024-02-21T02:34:51;102075.52;;;11.39;49.24
64115;BME280;62188;35.640;139.748;2024-02-21T02:37:17;102081.98;;;11.56;48.59
64115;BME280;62188;35.640;139.748;2024-02-21T02:39:41;102077.49;;;10.22;49.43
64115;BME280;62188;35.640;139.748;2024-02-21T02:42:06;102077.20;;;10.53;50.01
64115;BME280;62188;35.640;139.748;2024-02-21T02:44:33;102075.63;;;10.71;49.37
64115;BME280;62188;35.640;139.748;2024-02-21T02:46:58;102065.33;;;10.60;49.75
64115;BME280;62188;35.640;139.748;2024-02-21T02:49:24;102062.09;;;10.59;49.43
64115;BME280;62188;35.640;139.748;2024-02-21T02:51:51;102043.33;;;10.86;49.41
64115;BME280;62188;35.640;139.748;2024-02-21T02:54:15;102026.72;;;10.23;50.05
64115;BME280;62188;35.640;139.748;2024-02-21T02:56:40;102018.20;;;10.10;51.09
64115;BME280;62188;35.640;139.748;2024-02-21T02:59:07;102007.08;;;10.38;50.61
64115;BME280;62188;35.640;139.748;2024-02-21T03:01:34;101997.66;;;10.73;50.40
64115;BME280;62188;35.640;139.748;2024-02-21T03:03:57;101999.05;;;10.90;50.19
64115;BME280;62188;35.640;139.748;2024-02-21T03:06:24;101994.98;;;11.33;50.16
64115;BME280;62188;35.640;139.748;2024-02-21T03:08:56;101989.21;;;11.18;50.45
64115;BME280;62188;35.640;139.748;2024-02-21T03:11:15;101980.17;;;11.31;49.96
64115;BME280;62188;35.640;139.748;2024-02-21T03:13:41;101972.84;;;10.73;50.78
64115;BME280;62188;35.640;139.748;2024-02-21T03:16:05;101960.45;;;10.98;50.60
64115;BME280;62188;35.640;139.748;2024-02-21T03:18:31;101959.97;;;10.97;50.61
64115;BME280;62188;35.640;139.748;2024-02-21T03:20:56;101958.87;;;11.14;50.08
64115;BME280;62188;35.640;139.748;2024-02-21T03:23:24;101952.28;;;11.19;50.34
64115;BME280;62188;35.640;139.748;2024-02-21T03:25:47;101934.69;;;11.25;50.41
64115;BME280;62188;35.640;139.748;2024-02-21T03:28:13;101927.83;;;11.22;50.46
64115;BME280;62188;35.640;139.748;2024-02-21T03:30:38;101925.54;;;11.57;50.38
64115;BME280;62188;35.640;139.748;2024-02-21T03:33:04;101911.94;;;11.59;49.86
64115;BME280;62188;35.640;139.748;2024-02-21T03:35:30;101904.93;;;11.50;49.95
64115;BME280;62188;35.640;139.748;2024-02-21T03:37:55;101897.70;;;11.34;50.21
64115;BME280;62188;35.640;139.748;2024-02-21T03:40:22;101895.69;;;10.93;50.54
64115;BME280;62188;35.640;139.748;2024-02-21T03:42:48;101897.72;;;11.11;50.16
64115;BME280;62188;35.640;139.748;2024-02-21T03:45:13;101902.52;;;10.94;50.38
64115;BME280;62188;35.640;139.748;2024-02-21T03:47:39;101909.09;;;10.82;50.08
64115;BME280;62188;35.640;139.748;2024-02-21T03:50:05;101916.32;;;10.07;51.60
64115;BME280;62188;35.640;139.748;2024-02-21T03:52:30;101897.55;;;10.02;51.15
64115;BME280;62188;35.640;139.748;2024-02-21T03:54:55;101871.55;;;10.21;50.59
64115;BME280;62188;35.640;139.748;2024-02-21T03:57:21;101864.93;;;10.56;50.92
64115;BME280;62188;35.640;139.748;2024-02-21T03:59:47;101847.60;;;10.23;51.19
64115;BME280;62188;35.640;139.748;2024-02-21T04:02:12;101831.16;;;10.59;50.97
64115;BME280;62188;35.640;139.748;2024-02-21T04:04:37;101817.80;;;10.25;51.18
64115;BME280;62188;35.640;139.748;2024-02-21T04:07:03;101822.67;;;10.15;51.65
64115;BME280;62188;35.640;139.748;2024-02-21T04:09:29;101826.70;;;10.65;51.37
64115;BME280;62188;35.640;139.748;2024-02-21T04:11:55;101828.52;;;10.91;51.30
64115;BME280;62188;35.640;139.748;2024-02-21T04:14:20;101817.62;;;10.78;51.21
64115;BME280;62188;35.640;139.748;2024-02-21T04:16:45;101825.13;;;10.59;51.93
64115;BME280;62188;35.640;139.748;2024-02-21T04:19:11;101824.44;;;9.94;52.03
64115;BME280;62188;35.640;139.748;2024-02-21T04:21:36;101822.98;;;9.85;51.76
64115;BME280;62188;35.640;139.748;2024-02-21T04:24:02;101827.04;;;9.97;52.26
64115;BME280;62188;35.640;139.748;2024-02-21T04:26:28;101826.98;;;10.16;52.15
64115;BME280;62188;35.640;139.748;2024-02-21T04:28:53;101824.35;;;10.49;52.02
64115;BME280;62188;35.640;139.748;2024-02-21T04:31:22;101821.46;;;10.41;51.85
64115;BME280;62188;35.640;139.748;2024-02-21T04:33:45;101803.89;;;9.76;52.15
64115;BME280;62188;35.640;139.748;2024-02-21T04:36:10;101810.44;;;9.75;51.89
64115;BME280;62188;35.640;139.748;2024-02-21T04:38:36;101806.31;;;9.69;51.96
64115;BME280;62188;35.640;139.748;2024-02-21T04:41:01;101789.74;;;9.23;52.48
64115;BME280;62188;35.640;139.748;2024-02-21T04:43:28;101783.85;;;9.66;52.05
64115;BME280;62188;35.640;139.748;2024-02-21T04:45:55;101789.40;;;9.64;51.49
64115;BME280;62188;35.640;139.748;2024-02-21T04:48:19;101802.21;;;8.95;51.19
64115;BME280;62188;35.640;139.748;2024-02-21T04:50:44;101791.44;;;8.85;51.90
64115;BME280;62188;35.640;139.748;2024-02-21T04:53:11;101779.95;;;9.29;52.36
64115;BME280;62188;35.640;139.748;2024-02-21T04:55:36;101768.39;;;9.16;51.86
64115;BME280;62188;35.640;139.748;2024-02-21T04:58:02;101757.27;;;9.62;51.16
64115;BME280;62188;35.640;139.748;2024-02-21T05:00:27;101753.85;;;9.91;51.48
64115;BME280;62188;35.640;139.748;2024-02-21T05:02:52;101750.30;;;9.73;51.16
64115;BME280;62188;35.640;139.748;2024-02-21T05:05:19;101752.86;;;10.12;50.79
64115;BME280;62188;35.640;139.748;2024-02-21T05:07:45;101737.53;;;9.55;50.95
64115;BME280;62188;35.640;139.748;2024-02-21T05:10:11;101744.02;;;10.05;50.20
64115;BME280;62188;35.640;139.748;2024-02-21T05:12:35;101753.53;;;10.34;50.38
64115;BME280;62188;35.640;139.748;2024-02-21T05:15:00;101761.03;;;10.16;50.53
64115;BME280;62188;35.640;139.748;2024-02-21T05:17:26;101760.49;;;9.94;50.40
64115;BME280;62188;35.640;139.748;2024-02-21T05:19:52;101750.14;;;10.32;50.97
64115;BME280;62188;35.640;139.748;2024-02-21T05:22:18;101744.98;;;9.90;50.94
64115;BME280;62188;35.640;139.748;2024-02-21T05:24:44;101750.33;;;10.30;50.78
64115;BME280;62188;35.640;139.748;2024-02-21T05:27:08;101745.67;;;10.58;50.88
64115;BME280;62188;35.640;139.748;2024-02-21T05:29:37;101734.89;;;10.83;49.84
64115;BME280;62188;35.640;139.748;2024-02-21T05:32:00;101740.10;;;10.92;49.88
64115;BME280;62188;35.640;139.748;2024-02-21T05:34:26;101746.18;;;10.84;50.24
64115;BME280;62188;35.640;139.748;2024-02-21T05:36:51;101750.99;;;11.22;50.07
64115;BME280;62188;35.640;139.748;2024-02-21T05:39:17;101754.78;;;11.13;49.79
64115;BME280;62188;35.640;139.748;2024-02-21T05:41:42;101756.11;;;11.52;49.63
64115;BME280;62188;35.640;139.748;2024-02-21T05:44:08;101751.10;;;11.33;49.60
64115;BME280;62188;35.640;139.748;2024-02-21T05:46:34;101744.01;;;11.44;49.87
64115;BME280;62188;35.640;139.748;2024-02-21T05:48:59;101724.36;;;11.15;50.11
64115;BME280;62188;35.640;139.748;2024-02-21T05:51:26;101728.28;;;11.11;50.20
64115;BME280;62188;35.640;139.748;2024-02-21T05:53:50;101724.08;;;11.14;50.19
64115;BME280;62188;35.640;139.748;2024-02-21T05:56:18;101728.03;;;11.33;50.43
64115;BME280;62188;35.640;139.748;2024-02-21T05:58:42;101728.73;;;11.14;49.92
64115;BME280;62188;35.640;139.748;2024-02-21T06:01:09;101740.04;;;11.24;49.91
64115;BME280;62188;35.640;139.748;2024-02-21T06:03:33;101745.65;;;11.53;49.55
64115;BME280;62188;35.640;139.748;2024-02-21T06:06:00;101733.01;;;11.24;49.50
64115;BME280;62188;35.640;139.748;2024-02-21T06:08:24;101722.68;;;11.00;49.52
64115;BME280;62188;35.640;139.748;2024-02-21T06:10:50;101705.02;;;10.83;49.63
64115;BME280;62188;35.640;139.748;2024-02-21T06:13:16;101691.65;;;11.03;49.85
64115;BME280;62188;35.640;139.748;2024-02-21T06:15:42;101691.94;;;11.18;50.47
64115;BME280;62188;35.640;139.748;2024-02-21T06:18:07;101694.00;;;11.28;50.23
64115;BME280;62188;35.640;139.748;2024-02-21T06:20:33;101696.47;;;11.29;50.04
64115;BME280;62188;35.640;139.748;2024-02-21T06:22:58;101678.53;;;11.10;49.72
64115;BME280;62188;35.640;139.748;2024-02-21T06:25:23;101672.76;;;11.22;49.88
64115;BME280;62188;35.640;139.748;2024-02-21T06:27:49;101665.28;;;11.02;49.93
64115;BME280;62188;35.640;139.748;2024-02-21T06:30:15;101663.85;;;11.22;49.76
64115;BME280;62188;35.640;139.748;2024-02-21T06:32:40;101653.14;;;11.52;49.54
64115;BME280;62188;35.640;139.748;2024-02-21T06:35:07;101646.74;;;11.29;49.31
64115;BME280;62188;35.640;139.748;2024-02-21T06:37:31;101648.76;;;11.52;49.37
64115;BME280;62188;35.640;139.748;2024-02-21T06:40:00;101649.33;;;11.26;49.29
64115;BME280;62188;35.640;139.748;2024-02-21T06:42:24;101653.10;;;11.14;49.06
64115;BME280;62188;35.640;139.748;2024-02-21T06:44:48;101658.21;;;11.44;48.93
64115;BME280;62188;35.640;139.748;2024-02-21T06:47:14;101643.78;;;11.46;48.91
64115;BME280;62188;35.640;139.748;2024-02-21T06:49:39;101635.31;;;11.42;48.69
64115;BME280;62188;35.640;139.748;2024-02-21T06:52:05;101639.82;;;11.02;48.65
64115;BME280;62188;35.640;139.748;2024-02-21T06:54:33;101645.49;;;11.55;48.95
64115;BME280;62188;35.640;139.748;2024-02-21T06:57:07;101639.01;;;11.45;48.61
64115;BME280;62188;35.640;139.748;2024-02-21T06:59:22;101627.48;;;11.50;48.68
64115;BME280;62188;35.640;139.748;2024-02-21T07:01:51;101626.84;;;11.07;48.79
64115;BME280;62188;35.640;139.748;2024-02-21T07:04:13;101625.32;;;11.36;48.88
64115;BME280;62188;35.640;139.748;2024-02-21T07:06:39;101617.34;;;11.48;48.72
64115;BME280;62188;35.640;139.748;2024-02-21T07:09:05;101616.29;;;11.48;48.77
64115;BME280;62188;35.640;139.748;2024-02-21T07:11:30;101607.77;;;11.54;48.67
64115;BME280;62188;35.640;139.748;2024-02-21T07:13:55;101620.16;;;11.60;48.80
64115;BME280;62188;35.640;139.748;2024-02-21T07:16:21;101627.53;;;11.49;48.76
64115;BME280;62188;35.640;139.748;2024-02-21T07:18:49;101620.92;;;11.62;48.36
64115;BME280;62188;35.640;139.748;2024-02-21T07:21:12;101614.42;;;11.65;48.22
64115;BME280;62188;35.640;139.748;2024-02-21T07:23:42;101618.87;;;11.67;48.46
64115;BME280;62188;35.640;139.748;2024-02-21T07:26:06;101627.77;;;11.06;48.29
64115;BME280;62188;35.640;139.748;2024-02-21T07:28:29;101628.02;;;11.56;48.43
64115;BME280;62188;35.640;139.748;2024-02-21T07:30:54;101621.92;;;11.60;48.24
64115;BME280;62188;35.640;139.748;2024-02-21T07:33:20;101614.01;;;11.57;48.48
64115;BME280;62188;35.640;139.748;2024-02-21T07:35:46;101608.33;;;11.60;48.54
64115;BME280;62188;35.640;139.748;2024-02-21T07:38:11;101604.02;;;11.65;48.03
64115;BME280;62188;35.640;139.748;2024-02-21T07:40:37;101611.07;;;11.71;48.27
64115;BME280;62188;35.640;139.748;2024-02-21T07:43:04;101612.85;;;11.78;48.28
64115;BME280;62188;35.640;139.748;2024-02-21T07:45:28;101609.63;;;11.59;48.64
64115;BME280;62188;35.640;139.748;2024-02-21T07:48:00;101605.13;;;11.26;49.15
64115;BME280;62188;35.640;139.748;2024-02-21T07:50:24;101592.96;;;11.51;49.08
64115;BME280;62188;35.640;139.748;2024-02-21T07:52:51;101589.93;;;11.58;49.05
64115;BME280;62188;35.640;139.748;2024-02-21T07:55:11;101589.64;;;11.54;49.12
64115;BME280;62188;35.640;139.748;2024-02-21T07:57:37;101580.69;;;11.32;49.18
64115;BME280;62188;35.640;139.748;2024-02-21T08:00:02;101584.33;;;11.56;49.41
64115;BME280;62188;35.640;139.748;2024-02-21T08:02:27;101583.53;;;11.37;49.08
64115;BME280;62188;35.640;139.748;2024-02-21T08:04:55;101574.35;;;11.58;49.04
64115;BME280;62188;35.640;139.748;2024-02-21T08:07:19;101572.89;;;11.56;49.13
64115;BME280;62188;35.640;139.748;2024-02-21T08:09:46;101576.30;;;11.47;49.28
64115;BME280;62188;35.640;139.748;2024-02-21T08:12:11;101569.49;;;11.50;49.59
64115;BME280;62188;35.640;139.748;2024-02-21T08:14:35;101561.47;;;11.56;49.51
64115;BME280;62188;35.640;139.748;2024-02-21T08:17:01;101560.35;;;11.50;49.46
64115;BME280;62188;35.640;139.748;2024-02-21T08:19:28;101563.60;;;11.49;49.42
64115;BME280;62188;35.640;139.748;2024-02-21T08:21:52;101560.45;;;11.55;49.30
64115;BME280;62188;35.640;139.748;2024-02-21T08:24:17;101568.49;;;11.33;49.11
64115;BME280;62188;35.640;139.748;2024-02-21T08:26:45;101567.57;;;11.58;49.23
64115;BME280;62188;35.640;139.748;2024-02-21T08:29:09;101568.38;;;11.44;49.77
64115;BME280;62188;35.640;139.748;2024-02-21T08:31:34;101563.96;;;11.18;49.90
64115;BME280;62188;35.640;139.748;2024-02-21T08:34:00;101555.64;;;11.38;49.43
64115;BME280;62188;35.640;139.748;2024-02-21T08:36:26;101554.20;;;11.42;49.45
64115;BME280;62188;35.640;139.748;2024-02-21T08:38:53;101563.10;;;11.31;49.54
64115;BME280;62188;35.640;139.748;2024-02-21T08:41:17;101568.89;;;11.37;49.76
64115;BME280;62188;35.640;139.748;2024-02-21T08:43:43;101551.24;;;11.02;49.71
64115;BME280;62188;35.640;139.748;2024-02-21T08:46:08;101548.43;;;11.30;49.69
64115;BME280;62188;35.640;139.748;2024-02-21T08:48:34;101534.80;;;11.36;49.59
64115;BME280;62188;35.640;139.748;2024-02-21T08:50:59;101522.34;;;11.33;49.49
64115;BME280;62188;35.640;139.748;2024-02-21T08:53:26;101514.37;;;11.43;49.38
64115;BME280;62188;35.640;139.748;2024-02-21T08:55:51;101516.99;;;11.44;49.63
64115;BME280;62188;35.640;139.748;2024-02-21T08:58:16;101511.07;;;11.51;49.33
64115;BME280;62188;35.640;139.748;2024-02-21T09:00:41;101510.19;;;11.44;49.49
64115;BME280;62188;35.640;139.748;2024-02-21T09:03:08;101516.27;;;11.64;49.89
64115;BME280;62188;35.640;139.748;2024-02-21T09:05:33;101526.53;;;11.68;49.97
64115;BME280;62188;35.640;139.748;2024-02-21T09:07:59;101538.76;;;11.23;50.47
64115;BME280;62188;35.640;139.748;2024-02-21T09:10:24;101538.01;;;11.06;50.68
64115;BME280;62188;35.640;139.748;2024-02-21T09:12:50;101538.15;;;10.79;50.88
64115;BME280;62188;35.640;139.748;2024-02-21T09:15:17;101541.07;;;10.88;51.03
64115;BME280;62188;35.640;139.748;2024-02-21T09:17:41;101541.25;;;11.00;50.47
64115;BME280;62188;35.640;139.748;2024-02-21T09:20:09;101552.07;;;10.85;50.51
64115;BME280;62188;35.640;139.748;2024-02-21T09:22:32;101557.26;;;10.84;50.26
64115;BME280;62188;35.640;139.748;2024-02-21T09:25:00;101558.84;;;11.01;49.85
64115;BME280;62188;35.640;139.748;2024-02-21T09:27:23;101561.88;;;11.18;49.69
64115;BME280;62188;35.640;139.748;2024-02-21T09:29:49;101559.87;;;10.98;49.43
64115;BME280;62188;35.640;139.748;2024-02-21T09:32:17;101554.27;;;11.23;49.70
64115;BME280;62188;35.640;139.748;2024-02-21T09:34:40;101537.77;;;11.13;49.52
64115;BME280;62188;35.640;139.748;2024-02-21T09:37:06;101528.13;;;11.40;49.46
64115;BME280;62188;35.640;139.748;2024-02-21T09:39:31;101530.95;;;11.30;49.44
64115;BME280;62188;35.640;139.748;2024-02-21T09:42:03;101535.91;;;10.96;49.66
64115;BME280;62188;35.640;139.748;2024-02-21T09:44:23;101537.87;;;11.08;49.57
64115;BME280;62188;35.640;139.748;2024-02-21T09:46:55;101531.26;;;11.02;49.19
64115;BME280;62188;35.640;139.748;2024-02-21T09:49:21;101520.65;;;11.13;49.13
64115;BME280;62188;35.640;139.748;2024-02-21T09:51:41;101526.90;;;11.50;49.10
64115;BME280;62188;35.640;139.748;2024-02-21T09:54:06;101537.72;;;11.54;49.17
64115;BME280;62188;35.640;139.748;2024-02-21T09:56:30;101530.37;;;11.36;49.29
64115;BME280;62188;35.640;139.748;2024-02-21T09:59:00;101522.08;;;11.60;49.75
64115;BME280;62188;35.640;139.748;2024-02-21T10:01:23;101507.16;;;11.26;49.64
64115;BME280;62188;35.640;139.748;2024-02-21T10:03:47;101501.33;;;11.49;49.87
64115;BME280;62188;35.640;139.748;2024-02-21T10:06:13;101522.31;;;11.12;49.34
64115;BME280;62188;35.640;139.748;2024-02-21T10:08:39;101537.68;;;11.23;48.84
64115;BME280;62188;35.640;139.748;2024-02-21T10:11:04;101534.88;;;11.05;49.22
64115;BME280;62188;35.640;139.748;2024-02-21T10:13:31;101522.39;;;11.28;50.29
64115;BME280;62188;35.640;139.748;2024-02-21T10:16:04;101533.81;;;11.32;50.12
64115;BME280;62188;35.640;139.748;2024-02-21T10:18:21;101538.53;;;11.18;50.35
64115;BME280;62188;35.640;139.748;2024-02-21T10:23:14;101533.89;;;11.32;49.56
64115;BME280;62188;35.640;139.748;2024-02-21T10:25:39;101511.98;;;10.70;50.49
64115;BME280;62188;35.640;139.748;2024-02-21T10:28:04;101523.20;;;10.57;50.33
64115;BME280;62188;35.640;139.748;2024-02-21T10:30:29;101531.10;;;10.89;50.63
64115;BME280;62188;35.640;139.748;2024-02-21T10:32:55;101535.65;;;11.18;50.31
64115;BME280;62188;35.640;139.748;2024-02-21T10:35:26;101532.54;;;10.76;50.28
64115;BME280;62188;35.640;139.748;2024-02-21T10:37:46;101516.04;;;10.29;51.22
64115;BME280;62188;35.640;139.748;2024-02-21T10:40:12;101504.20;;;10.22;51.79
64115;BME280;62188;35.640;139.748;2024-02-21T10:42:47;101508.86;;;10.22;51.82
64115;BME280;62188;35.640;139.748;2024-02-21T10:45:07;101515.02;;;10.40;51.19
64115;BME280;62188;35.640;139.748;2024-02-21T10:47:29;101515.18;;;10.56;51.22
64115;BME280;62188;35.640;139.748;2024-02-21T10:50:03;101519.94;;;10.80;50.66
64115;BME280;62188;35.640;139.748;2024-02-21T10:52:27;101500.27;;;10.93;50.04
64115;BME280;62188;35.640;139.748;2024-02-21T10:54:51;101506.91;;;10.91;50.36
64115;BME280;62188;35.640;139.748;2024-02-21T10:57:11;101513.63;;;10.79;50.84
64115;BME280;62188;35.640;139.748;2024-02-21T10:59:39;101512.07;;;11.20;50.33
64115;BME280;62188;35.640;139.748;2024-02-21T11:02:02;101517.35;;;10.76;50.22
64115;BME280;62188;35.640;139.748;2024-02-21T11:04:28;101505.81;;;10.92;50.31
64115;BME280;62188;35.640;139.748;2024-02-21T11:06:56;101507.62;;;11.09;49.62
64115;BME280;62188;35.640;139.748;2024-02-21T11:09:29;101499.86;;;11.15;49.88
64115;BME280;62188;35.640;139.748;2024-02-21T11:11:45;101498.02;;;11.04;50.17
64115;BME280;62188;35.640;139.748;2024-02-21T11:14:11;101509.56;;;11.13;49.94
64115;BME280;62188;35.640;139.748;2024-02-21T11:16:39;101512.87;;;10.80;50.53
64115;BME280;62188;35.640;139.748;2024-02-21T11:19:07;101503.58;;;11.03;50.68
64115;BME280;62188;35.640;139.748;2024-02-21T11:21:33;101494.03;;;11.01;50.33
64115;BME280;62188;35.640;139.748;2024-02-21T11:23:57;101477.57;;;11.04;51.70
64115;BME280;62188;35.640;139.748;2024-02-21T11:26:22;101476.12;;;11.29;52.98
64115;BME280;62188;35.640;139.748;2024-02-21T11:28:44;101486.52;;;11.08;52.52
64115;BME280;62188;35.640;139.748;2024-02-21T11:31:11;101488.42;;;11.59;53.80
64115;BME280;62188;35.640;139.748;2024-02-21T11:33:35;101480.85;;;11.43;52.16
64115;BME280;62188;35.640;139.748;2024-02-21T11:36:00;101462.76;;;11.50;50.35
64115;BME280;62188;35.640;139.748;2024-02-21T11:38:27;101461.40;;;11.52;49.89
64115;BME280;62188;35.640;139.748;2024-02-21T11:40:52;101458.67;;;11.55;49.94
64115;BME280;62188;35.640;139.748;2024-02-21T11:43:18;101448.54;;;11.46;49.72
64115;BME280;62188;35.640;139.748;2024-02-21T11:45:42;101438.96;;;11.22;50.20
64115;BME280;62188;35.640;139.748;2024-02-21T11:48:08;101421.57;;;11.53;50.63
64115;BME280;62188;35.640;139.748;2024-02-21T11:50:35;101415.74;;;11.56;51.41
64115;BME280;62188;35.640;139.748;2024-02-21T11:52:59;101410.77;;;11.29;50.32
64115;BME280;62188;35.640;139.748;2024-02-21T11:55:24;101410.36;;;11.33;50.58
64115;BME280;62188;35.640;139.748;2024-02-21T11:57:51;101405.93;;;11.31;49.71
64115;BME280;62188;35.640;139.748;2024-02-21T12:00:17;101395.14;;;11.01;50.98
64115;BME280;62188;35.640;139.748;2024-02-21T12:02:41;101397.38;;;11.32;50.73
64115;BME280;62188;35.640;139.748;2024-02-21T12:05:09;101407.37;;;11.42;51.65
64115;BME280;62188;35.640;139.748;2024-02-21T12:07:33;101418.55;;;11.56;50.47
64115;BME280;62188;35.640;139.748;2024-02-21T12:10:00;101418.57;;;11.41;50.23
64115;BME280;62188;35.640;139.748;2024-02-21T12:12:25;101428.19;;;11.65;50.48
64115;BME280;62188;35.640;139.748;2024-02-21T12:14:56;101425.25;;;11.35;49.84
64115;BME280;62188;35.640;139.748;2024-02-21T12:17:15;101446.64;;;10.92;49.74
64115;BME280;62188;35.640;139.748;2024-02-21T12:19:41;101466.65;;;11.18;50.46
64115;BME280;62188;35.640;139.748;2024-02-21T12:22:08;101454.30;;;10.71;50.82
64115;BME280;62188;35.640;139.748;2024-02-21T12:24:32;101454.01;;;10.80;50.83